Time;durP1;ratioP1;P1;durP2;ratioP2;P2;SDS_P1;SDS_P2;PMS_P1;PMS_P2;Temp;Humidity;BMP_temperature;BMP_pressure;BME280_temperature;BME280_humidity;BME280_pressure;Samples;Min_cycle;Max_cycle;Signal;HPM_P1;HPM_P2
2021/05/29 00:01:00;;;;;;;5.00;1.85;;;410.10;1459.20;;;;;;5094464;28;20464;-67
2021/05/29 00:03:27;;;;;;;2.10;1.83;;;410.10;1433.60;;;;;;5092396;28;20028;-64
2021/05/29 00:05:53;;;;;;;4.65;2.10;;;410.10;1459.20;;;;;;5092260;28;20028;-69
2021/05/29 00:08:20;;;;;;;3.13;2.00;;;410.00;1433.60;;;;;;5093528;28;20039;-64
2021/05/29 00:10:50;;;;;;;3.83;2.50;;;410.10;1459.20;;;;;;5093811;28;20012;-66
2021/05/29 00:13:20;;;;;;;3.45;2.00;;;410.10;1459.20;;;;;;5091039;28;20051;-64
2021/05/29 00:15:46;;;;;;;5.53;2.10;;;410.00;1459.20;;;;;;5090955;28;20090;-63
2021/05/29 00:18:12;;;;;;;5.28;2.13;;;410.00;1459.20;;;;;;5093489;28;20032;-66
2021/05/29 00:20:39;;;;;;;2.42;2.05;;;409.90;1459.20;;;;;;5094035;28;20379;-64
2021/05/29 00:23:09;;;;;;;3.95;2.17;;;409.90;1459.20;;;;;;5093707;28;20044;-63
2021/05/29 00:25:36;;;;;;;3.30;1.80;;;409.90;1459.20;;;;;;5093755;28;20027;-70
2021/05/29 00:28:02;;;;;;;2.17;1.95;;;409.80;1484.80;;;;;;5093860;28;20040;-70
2021/05/29 00:30:27;;;;;;;1.67;1.55;;;409.80;1484.80;;;;;;5093941;28;20143;-64
2021/05/29 00:32:53;;;;;;;2.88;1.90;;;409.80;1484.80;;;;;;5093311;28;20024;-65
2021/05/29 00:35:19;;;;;;;2.80;1.70;;;409.80;1484.80;;;;;;5093753;28;20031;-67
2021/05/29 00:37:45;;;;;;;3.65;1.88;;;409.70;1484.80;;;;;;5093893;28;20038;-64
2021/05/29 00:40:12;;;;;;;2.72;2.00;;;409.70;1484.80;;;;;;5093883;28;20477;-71
2021/05/29 00:42:38;;;;;;;3.08;1.60;;;409.60;1510.40;;;;;;5093584;28;20024;-70
2021/05/29 00:45:04;;;;;;;1.77;1.58;;;409.60;1484.80;;;;;;5093581;28;20091;-71
2021/05/29 00:47:30;;;;;;;3.50;2.90;;;409.60;1484.80;;;;;;5093742;28;20032;-70
2021/05/29 00:49:59;;;;;;;3.10;2.00;;;409.60;1510.40;;;;;;5093584;28;20029;-64
2021/05/29 00:52:25;;;;;;;3.25;1.75;;;409.60;1510.40;;;;;;5093723;28;20020;-64
2021/05/29 00:54:53;;;;;;;5.38;2.33;;;409.60;1510.40;;;;;;5093753;28;20039;-71
2021/05/29 00:57:19;;;;;;;2.30;1.85;;;384.90;1484.80;;;;;;5093911;28;20020;-64
2021/05/29 00:59:45;;;;;;;2.95;1.67;;;384.80;1484.80;;;;;;5093501;28;20027;-70
2021/05/29 01:02:14;;;;;;;2.25;1.92;;;384.80;1484.80;;;;;;5093716;28;20039;-64
2021/05/29 01:04:41;;;;;;;1.95;1.75;;;384.80;1484.80;;;;;;5093632;28;20020;-65
2021/05/29 01:07:13;;;;;;;3.30;2.60;;;384.70;1484.80;;;;;;5093597;28;20032;-64
2021/05/29 01:09:40;;;;;;;7.60;4.10;;;384.70;1484.80;;;;;;5093300;28;20031;-64
2021/05/29 01:12:07;;;;;;;9.63;6.53;;;384.70;1510.40;;;;;;5093468;28;20020;-70
2021/05/29 01:14:34;;;;;;;11.68;8.05;;;384.70;1510.40;;;;;;5093746;28;20051;-70
2021/05/29 01:17:03;;;;;;;13.48;9.18;;;384.70;1510.40;;;;;;5093467;28;20031;-64
2021/05/29 01:19:30;;;;;;;17.60;9.43;;;384.70;1510.40;;;;;;5093296;28;20029;-70
2021/05/29 01:21:57;;;;;;;11.63;8.20;;;384.60;1510.40;;;;;;5093274;28;20074;-67
2021/05/29 01:24:24;;;;;;;10.35;6.53;;;384.60;1510.40;;;;;;5093300;28;20417;-71
2021/05/29 01:26:52;;;;;;;7.38;5.53;;;384.50;1510.40;;;;;;5093218;28;20038;-64
2021/05/29 01:29:18;;;;;;;5.35;4.18;;;384.50;1510.40;;;;;;5093472;28;20067;-71
2021/05/29 01:31:48;;;;;;;6.15;3.72;;;384.50;1510.40;;;;;;5093150;28;20412;-64
2021/05/29 01:34:15;;;;;;;5.57;3.47;;;384.50;1510.40;;;;;;5093322;28;20021;-71
2021/05/29 01:36:42;;;;;;;2.60;2.40;;;384.50;1510.40;;;;;;5094553;28;20028;-64
2021/05/29 01:39:09;;;;;;;2.92;2.40;;;384.50;1536.00;;;;;;5096907;28;20028;-68
2021/05/29 01:41:35;;;;;;;2.63;2.33;;;384.40;1536.00;;;;;;5096855;28;20020;-71
2021/05/29 01:44:02;;;;;;;5.28;2.50;;;384.40;1536.00;;;;;;5096454;28;20039;-63
2021/05/29 01:46:27;;;;;;;2.40;2.20;;;384.40;1536.00;;;;;;5096589;28;20508;-71
2021/05/29 01:48:53;;;;;;;2.50;2.20;;;384.40;1536.00;;;;;;5096850;28;20024;-67
2021/05/29 01:51:22;;;;;;;2.03;1.83;;;384.40;1536.00;;;;;;5096842;28;20374;-71
2021/05/29 01:53:52;;;;;;;3.83;1.98;;;384.30;1536.00;;;;;;5096645;28;20041;-64
2021/05/29 01:56:18;;;;;;;3.50;2.10;;;384.30;1536.00;;;;;;5096663;28;20444;-64
2021/05/29 01:58:44;;;;;;;2.13;1.95;;;384.30;1536.00;;;;;;5096777;28;20016;-69
2021/05/29 02:01:12;;;;;;;3.17;2.30;;;384.30;1536.00;;;;;;5096569;28;20024;-71
2021/05/29 02:03:38;;;;;;;6.60;2.25;;;384.30;1536.00;;;;;;5096381;28;20028;-64
2021/05/29 02:06:05;;;;;;;2.45;2.25;;;384.20;1536.00;;;;;;5096543;28;20092;-64
2021/05/29 02:08:31;;;;;;;2.50;2.00;;;384.20;1536.00;;;;;;5096197;28;20118;-64
2021/05/29 02:10:57;;;;;;;3.33;2.28;;;384.20;1561.60;;;;;;5096328;28;20508;-71
2021/05/29 02:13:32;;;;;;;2.05;1.85;;;384.20;1561.60;;;;;;5096353;28;20087;-70
2021/05/29 02:15:59;;;;;;;3.08;2.30;;;384.20;1561.60;;;;;;5096173;28;20020;-71
2021/05/29 02:18:25;;;;;;;3.97;1.98;;;384.20;1561.60;;;;;;5096065;28;20031;-71
2021/05/29 02:21:02;;;;;;;2.30;2.10;;;384.20;1561.60;;;;;;5096169;28;20024;-64
2021/05/29 02:23:35;;;;;;;4.70;1.92;;;384.20;1561.60;;;;;;5095647;28;20048;-64
2021/05/29 02:26:05;;;;;;;4.57;2.10;;;384.20;1561.60;;;;;;5096191;28;20046;-71
2021/05/29 02:28:33;;;;;;;2.83;1.95;;;384.20;1561.60;;;;;;5095938;28;20039;-67
2021/05/29 02:31:00;;;;;;;2.33;2.13;;;384.10;1561.60;;;;;;5095890;28;20024;-71
2021/05/29 02:33:26;;;;;;;5.70;2.90;;;384.10;1561.60;;;;;;5095908;28;20054;-64
2021/05/29 02:35:53;;;;;;;2.42;2.15;;;384.10;1561.60;;;;;;5095831;28;20027;-64
2021/05/29 02:38:18;;;;;;;2.28;2.08;;;384.10;1561.60;;;;;;5095688;28;20484;-69
2021/05/29 02:40:44;;;;;;;2.35;2.10;;;384.10;1561.60;;;;;;5095577;28;20048;-64
2021/05/29 02:43:10;;;;;;;3.53;2.25;;;384.10;1561.60;;;;;;5095565;28;20025;-64
2021/05/29 02:45:39;;;;;;;2.28;1.80;;;384.00;1561.60;;;;;;5095622;28;20031;-71
2021/05/29 02:48:08;;;;;;;2.95;2.10;;;384.00;1587.20;;;;;;5095583;28;20450;-66
2021/05/29 02:50:34;;;;;;;3.30;2.15;;;384.00;1587.20;;;;;;5095586;28;20020;-70
2021/05/29 02:53:00;;;;;;;2.92;2.17;;;384.00;1587.20;;;;;;5095315;28;20053;-64
2021/05/29 02:55:26;;;;;;;2.75;2.55;;;384.00;1587.20;;;;;;5095304;28;20024;-64
2021/05/29 02:57:56;;;;;;;2.30;2.03;;;384.00;1587.20;;;;;;5095329;28;20093;-68
2021/05/29 03:00:24;;;;;;;2.22;2.00;;;359.30;1587.20;;;;;;5095375;28;20066;-64
2021/05/29 03:02:50;;;;;;;2.63;2.35;;;359.30;1587.20;;;;;;5095303;28;20052;-65
2021/05/29 03:05:16;;;;;;;2.88;2.17;;;359.30;1587.20;;;;;;5095213;28;20031;-70
2021/05/29 03:07:43;;;;;;;4.07;2.28;;;359.30;1587.20;;;;;;5095150;28;20132;-64
2021/05/29 03:10:09;;;;;;;6.53;3.72;;;359.30;1587.20;;;;;;5094969;28;20523;-65
2021/05/29 03:12:39;;;;;;;3.92;3.17;;;359.30;1587.20;;;;;;5095255;28;20032;-64
2021/05/29 03:15:10;;;;;;;5.15;3.80;;;359.30;1587.20;;;;;;5095190;28;20118;-69
2021/05/29 03:17:36;;;;;;;6.22;4.38;;;359.30;1587.20;;;;;;5095067;28;20024;-64
2021/05/29 03:20:06;;;;;;;4.00;3.60;;;359.30;1587.20;;;;;;5095076;28;20024;-64
2021/05/29 03:22:32;;;;;;;5.10;2.90;;;359.20;1587.20;;;;;;5094720;28;20071;-66
2021/05/29 03:24:58;;;;;;;11.07;3.97;;;359.20;1612.80;;;;;;5094756;28;20056;-69
2021/05/29 03:27:25;;;;;;;5.60;2.85;;;359.20;1612.80;;;;;;5094952;28;20071;-68
2021/05/29 03:29:51;;;;;;;7.47;2.97;;;359.30;1612.80;;;;;;5094877;28;20100;-68
2021/05/29 03:32:17;;;;;;;8.07;2.50;;;359.20;1612.80;;;;;;5094767;28;20028;-65
2021/05/29 03:34:42;;;;;;;5.80;2.50;;;359.20;1612.80;;;;;;5094809;28;20074;-62
2021/05/29 03:37:09;;;;;;;3.47;2.33;;;359.20;1612.80;;;;;;5094955;28;20032;-62
2021/05/29 03:39:35;;;;;;;4.25;2.90;;;359.20;1612.80;;;;;;5094523;28;20416;-68
2021/05/29 03:42:01;;;;;;;3.28;2.70;;;359.20;1612.80;;;;;;5094930;28;20028;-69
2021/05/29 03:44:27;;;;;;;2.90;2.58;;;359.30;1612.80;;;;;;5094627;28;20020;-68
2021/05/29 03:46:53;;;;;;;3.90;2.30;;;359.30;1612.80;;;;;;5094478;28;20104;-68
2021/05/29 03:49:18;;;;;;;3.70;2.63;;;359.30;1612.80;;;;;;5094619;28;20028;-68
2021/05/29 03:51:44;;;;;;;3.80;2.50;;;359.30;1612.80;;;;;;5094341;28;20024;-63
2021/05/29 03:54:10;;;;;;;3.60;2.45;;;359.30;1612.80;;;;;;5094315;28;20103;-62
2021/05/29 03:56:36;;;;;;;4.97;2.33;;;359.30;1612.80;;;;;;5094146;28;20024;-68
2021/05/29 03:59:03;;;;;;;3.20;2.90;;;359.30;1612.80;;;;;;5093813;28;20024;-68
2021/05/29 04:01:30;;;;;;;3.90;3.08;;;384.00;1612.80;;;;;;5094455;28;20016;-69
2021/05/29 04:03:55;;;;;;;3.53;2.58;;;359.30;1612.80;;;;;;5094035;28;20469;-62
2021/05/29 04:06:21;;;;;;;3.05;2.50;;;384.00;1612.80;;;;;;5094071;28;20024;-69
2021/05/29 04:08:47;;;;;;;4.18;2.70;;;384.00;1612.80;;;;;;5093919;28;20103;-62
2021/05/29 04:11:13;;;;;;;4.20;2.72;;;384.10;1612.80;;;;;;5094268;28;20035;-62
2021/05/29 04:13:38;;;;;;;4.15;2.72;;;384.10;1638.40;;;;;;5094038;28;20473;-63
2021/05/29 04:16:04;;;;;;;4.07;3.05;;;384.10;1638.40;;;;;;5094016;28;20020;-69
2021/05/29 04:18:30;;;;;;;7.72;4.07;;;384.20;1612.80;;;;;;5093942;28;20024;-62
2021/05/29 04:20:56;;;;;;;10.80;5.20;;;384.20;1612.80;;;;;;5093945;28;20370;-68
2021/05/29 04:23:21;;;;;;;8.80;5.45;;;384.20;1612.80;;;;;;5093822;28;20044;-62
2021/05/29 04:25:47;;;;;;;9.35;5.00;;;384.30;1612.80;;;;;;5093957;28;20085;-68
2021/05/29 04:28:13;;;;;;;5.43;4.20;;;384.40;1612.80;;;;;;5093963;28;20486;-62
2021/05/29 04:30:39;;;;;;;4.82;3.35;;;384.40;1612.80;;;;;;5093401;28;20017;-63
2021/05/29 04:33:05;;;;;;;4.03;2.83;;;384.50;1612.80;;;;;;5093788;28;20042;-62
2021/05/29 04:35:31;;;;;;;4.97;2.80;;;384.70;1587.20;;;;;;5093959;28;20020;-63
2021/05/29 04:37:57;;;;;;;5.90;2.83;;;384.80;1587.20;;;;;;5094070;28;20032;-62
2021/05/29 04:40:25;;;;;;;5.30;3.28;;;384.90;1587.20;;;;;;5094225;28;20027;-62
2021/05/29 04:42:52;;;;;;;6.07;2.67;;;409.70;1587.20;;;;;;5093854;28;20036;-69
2021/05/29 04:45:18;;;;;;;3.85;2.90;;;409.80;1561.60;;;;;;5093905;28;20054;-67
2021/05/29 04:47:44;;;;;;;4.70;2.80;;;410.00;1561.60;;;;;;5093346;28;20474;-62
2021/05/29 04:50:12;;;;;;;6.50;3.30;;;410.10;1536.00;;;;;;5093761;28;20051;-68
2021/05/29 04:52:39;;;;;;;4.18;2.72;;;410.30;1536.00;;;;;;5093668;28;20028;-69
2021/05/29 04:55:06;;;;;;;4.70;2.72;;;410.40;1510.40;;;;;;5093431;28;20044;-68
2021/05/29 04:57:32;;;;;;;5.20;3.13;;;435.20;1510.40;;;;;;5094260;28;20122;-69
2021/05/29 04:59:58;;;;;;;13.00;3.30;;;435.30;1484.80;;;;;;5094022;28;20043;-62
2021/05/29 05:02:24;;;;;;;6.78;3.15;;;435.40;1484.80;;;;;;5092776;28;20473;-65
2021/05/29 05:04:49;;;;;;;4.90;3.15;;;435.60;1459.20;;;;;;5093602;28;20078;-63
2021/05/29 05:07:15;;;;;;;23.15;4.07;;;435.70;1459.20;;;;;;5092189;28;20032;-63
2021/05/29 05:09:41;;;;;;;8.35;3.05;;;435.80;1459.20;;;;;;5093138;28;20343;-70
2021/05/29 05:12:07;;;;;;;10.57;4.22;;;435.90;1433.60;;;;;;5095403;28;20048;-62
2021/05/29 05:14:38;;;;;;;6.75;2.95;;;436.00;1433.60;;;;;;5097509;28;20094;-63
2021/05/29 05:17:04;;;;;;;8.88;3.15;;;436.10;1433.60;;;;;;5097483;28;20117;-62
2021/05/29 05:19:30;;;;;;;6.63;3.30;;;460.80;1459.20;;;;;;5097412;28;20024;-69
2021/05/29 05:21:57;;;;;;;3.40;3.10;;;460.90;1433.60;;;;;;5097289;28;20117;-69
2021/05/29 05:24:23;;;;;;;4.35;3.15;;;461.00;1433.60;;;;;;5097021;28;20048;-70
2021/05/29 05:26:49;;;;;;;5.38;2.90;;;461.10;1433.60;;;;;;5097008;28;20059;-64
2021/05/29 05:29:15;;;;;;;12.20;2.83;;;461.20;1408.00;;;;;;5097277;28;20055;-71
2021/05/29 05:31:43;;;;;;;6.10;3.00;;;461.30;1408.00;;;;;;5097063;28;20020;-65
2021/05/29 05:34:10;;;;;;;3.95;2.60;;;461.40;1382.40;;;;;;5097111;28;20107;-64
2021/05/29 05:36:37;;;;;;;3.10;2.42;;;461.50;1382.40;;;;;;5095684;28;20020;-64
2021/05/29 05:39:06;;;;;;;6.13;2.85;;;461.60;1356.80;;;;;;5097073;28;20094;-71
2021/05/29 05:41:32;;;;;;;5.32;2.33;;;486.40;1356.80;;;;;;5096753;28;20016;-66
2021/05/29 05:43:57;;;;;;;5.95;3.10;;;486.50;1356.80;;;;;;5097150;28;20031;-65
2021/05/29 05:46:23;;;;;;;3.10;2.60;;;486.50;1331.20;;;;;;5096741;28;20020;-65
2021/05/29 05:48:50;;;;;;;4.35;2.28;;;486.70;1305.60;;;;;;5097077;28;20040;-64
2021/05/29 05:51:16;;;;;;;4.82;2.40;;;486.90;1305.60;;;;;;5096728;28;20481;-71
2021/05/29 05:53:41;;;;;;;3.42;2.67;;;486.90;1305.60;;;;;;5096477;28;20038;-64
2021/05/29 05:56:08;;;;;;;3.80;2.53;;;486.90;1280.00;;;;;;5096427;28;20099;-71
2021/05/29 05:58:36;;;;;;;8.63;2.60;;;487.10;1280.00;;;;;;5096515;28;20025;-70
2021/05/29 06:01:03;;;;;;;3.90;3.03;;;487.20;1254.40;;;;;;5096538;28;20024;-66
2021/05/29 06:03:29;;;;;;;3.40;2.58;;;487.20;1254.40;;;;;;5096589;28;20024;-65
2021/05/29 06:05:54;;;;;;;2.58;2.38;;;512.00;1254.40;;;;;;5096520;28;20020;-71
2021/05/29 06:08:20;;;;;;;2.88;2.20;;;512.10;1228.80;;;;;;5096911;28;20105;-64
2021/05/29 06:10:50;;;;;;;2.97;2.40;;;512.50;1228.80;;;;;;5096492;28;20423;-64
2021/05/29 06:21:15;;;;;;;3.58;2.10;;;537.70;1203.20;;;;;;5074101;28;20033;-65
2021/05/29 06:23:41;;;;;;;4.68;2.03;;;538.00;1177.60;;;;;;5072993;28;20102;-64
2021/05/29 06:26:06;;;;;;;4.85;2.33;;;538.10;1177.60;;;;;;5074028;28;20024;-72
2021/05/29 06:28:32;;;;;;;3.65;2.30;;;538.40;1152.00;;;;;;5073819;28;20060;-72
2021/05/29 06:30:58;;;;;;;4.75;2.08;;;538.50;1126.40;;;;;;5073687;28;20024;-65
2021/05/29 06:33:23;;;;;;;6.97;2.00;;;563.30;1126.40;;;;;;5070162;28;20486;-71
2021/05/29 06:35:49;;;;;;;2.10;1.90;;;563.50;1126.40;;;;;;5072843;28;20082;-70
2021/05/29 06:38:15;;;;;;;4.03;2.60;;;563.70;1126.40;;;;;;5073083;28;20028;-64
2021/05/29 06:40:41;;;;;;;1.73;1.63;;;563.90;1100.80;;;;;;5072485;28;20077;-64
2021/05/29 06:43:06;;;;;;;8.35;2.38;;;564.00;1075.20;;;;;;5072612;28;20407;-64
2021/05/29 06:45:32;;;;;;;2.85;1.90;;;588.80;1075.20;;;;;;5072685;28;20026;-68
2021/05/29 06:48:00;;;;;;;3.88;2.38;;;589.00;1075.20;;;;;;5072436;28;20032;-65
2021/05/29 06:50:25;;;;;;;3.40;1.60;;;589.20;1075.20;;;;;;5072608;28;20021;-66
2021/05/29 06:52:54;;;;;;;10.07;2.55;;;589.40;1049.60;;;;;;5081451;28;20036;-72
2021/05/29 07:00:48;;;;;;;7.30;2.35;;;614.50;998.40;;;;;;5074793;28;20382;-66
2021/05/29 07:03:14;;;;;;;12.13;2.22;;;614.70;998.40;;;;;;5082013;28;20036;-67
2021/05/29 07:05:40;;;;;;;12.02;2.25;;;614.80;972.80;;;;;;5094880;28;20024;-66
2021/05/29 07:08:06;;;;;;;12.00;2.20;;;614.90;972.80;;;;;;5094908;28;20481;-67
2021/05/29 07:10:32;;;;;;;8.88;1.80;;;615.00;947.20;;;;;;5094711;28;20020;-64
2021/05/29 07:13:00;;;;;;;5.90;2.10;;;615.00;947.20;;;;;;5094382;28;20469;-64
2021/05/29 07:15:30;;;;;;;5.63;1.85;;;615.00;947.20;;;;;;5094435;28;20380;-65
2021/05/29 07:17:56;;;;;;;2.97;1.70;;;615.00;947.20;;;;;;5093709;28;20111;-63
2021/05/29 07:20:22;;;;;;;3.88;1.98;;;615.20;921.60;;;;;;5094216;28;20024;-67
2021/05/29 07:22:48;;;;;;;7.88;1.75;;;615.20;947.20;;;;;;5094473;28;20040;-65
2021/05/29 07:25:14;;;;;;;4.03;1.67;;;640.00;947.20;;;;;;5093179;28;20084;-65
2021/05/29 07:27:41;;;;;;;2.13;1.60;;;640.10;921.60;;;;;;5094062;28;20040;-67
2021/05/29 07:30:07;;;;;;;6.05;2.30;;;640.30;921.60;;;;;;5094233;28;20016;-67
2021/05/29 07:32:35;;;;;;;4.57;1.77;;;640.50;896.00;;;;;;5094285;28;20035;-64
2021/05/29 07:35:01;;;;;;;3.50;1.45;;;640.70;896.00;;;;;;5093446;28;20097;-66
2021/05/29 07:37:27;;;;;;;1.83;1.67;;;665.60;921.60;;;;;;5094361;28;20024;-65
2021/05/29 07:39:53;;;;;;;5.13;1.80;;;665.70;896.00;;;;;;5094039;28;20032;-64
2021/05/29 07:42:19;;;;;;;6.80;1.73;;;666.00;896.00;;;;;;5093328;28;20051;-64
2021/05/29 07:44:45;;;;;;;6.32;1.70;;;666.00;896.00;;;;;;5093404;28;20019;-64
2021/05/29 07:47:11;;;;;;;2.22;1.50;;;666.20;870.40;;;;;;5090541;28;20031;-67
2021/05/29 07:49:36;;;;;;;3.83;1.50;;;666.30;870.40;;;;;;5093080;28;20032;-64
2021/05/29 07:52:03;;;;;;;3.45;1.65;;;666.50;844.80;;;;;;5093154;28;20032;-66
2021/05/29 07:54:31;;;;;;;2.58;1.67;;;691.30;844.80;;;;;;5093476;28;20028;-65
2021/05/29 07:56:57;;;;;;;6.38;2.20;;;691.30;844.80;;;;;;5091494;28;20039;-65
2021/05/29 07:59:23;;;;;;;5.18;1.70;;;691.30;819.20;;;;;;5093036;28;20063;-67
2021/05/29 08:01:49;;;;;;;3.28;1.58;;;691.50;844.80;;;;;;5093907;28;20024;-64
2021/05/29 08:04:16;;;;;;;3.28;1.48;;;691.60;819.20;;;;;;5093507;28;20117;-64
2021/05/29 08:06:42;;;;;;;8.60;1.98;;;691.50;819.20;;;;;;5093528;28;20028;-66
2021/05/29 08:09:08;;;;;;;2.90;1.50;;;691.50;819.20;;;;;;5093605;28;20031;-67
2021/05/29 08:11:38;;;;;;;3.42;1.48;;;691.50;819.20;;;;;;5093416;28;20024;-64
2021/05/29 08:14:06;;;;;;;4.47;1.65;;;691.60;819.20;;;;;;5093320;28;20023;-67
2021/05/29 08:16:32;;;;;;;2.28;1.70;;;691.80;819.20;;;;;;5093480;28;20032;-64
2021/05/29 08:18:58;;;;;;;9.23;2.08;;;691.90;819.20;;;;;;5093108;28;20020;-64
2021/05/29 08:21:24;;;;;;;1.88;1.40;;;692.00;793.60;;;;;;5093371;28;20024;-65
2021/05/29 08:23:51;;;;;;;3.38;1.80;;;716.80;819.20;;;;;;5092993;28;20052;-64
2021/05/29 08:26:17;;;;;;;4.50;1.60;;;716.80;819.20;;;;;;5093167;28;20480;-63
2021/05/29 08:28:45;;;;;;;4.05;2.08;;;716.90;819.20;;;;;;5093232;28;20048;-64
2021/05/29 08:31:12;;;;;;;1.75;1.63;;;716.80;819.20;;;;;;5093392;28;20020;-64
2021/05/29 08:33:39;;;;;;;4.30;1.88;;;716.80;819.20;;;;;;5092945;28;20028;-64
2021/05/29 08:36:06;;;;;;;3.85;1.60;;;716.90;819.20;;;;;;5093159;28;20484;-65
2021/05/29 08:38:32;;;;;;;4.28;1.58;;;717.00;819.20;;;;;;5093090;28;20036;-63
2021/05/29 08:40:58;;;;;;;2.58;1.60;;;717.10;819.20;;;;;;5093060;28;20020;-64
2021/05/29 08:43:24;;;;;;;14.70;2.55;;;717.20;793.60;;;;;;5093346;28;20482;-69
2021/05/29 08:45:50;;;;;;;10.93;3.10;;;717.30;793.60;;;;;;5095005;28;20028;-69
2021/05/29 08:48:16;;;;;;;35.10;4.13;;;717.20;793.60;;;;;;5096909;28;20035;-70
2021/05/29 08:53:27;;;;;;;5.75;1.60;;;717.20;793.60;;;;;;5097229;28;20043;-66
2021/05/29 08:55:53;;;;;;;10.00;2.42;;;717.30;768.00;;;;;;5096657;28;20024;-75
2021/05/29 08:58:18;;;;;;;4.53;1.90;;;717.40;768.00;;;;;;5094406;28;20473;-66
2021/05/29 09:00:44;;;;;;;5.15;1.83;;;717.60;793.60;;;;;;5097506;28;20020;-73
2021/05/29 09:03:13;;;;;;;4.88;2.20;;;742.40;793.60;;;;;;5098274;28;20055;-66
2021/05/29 09:05:44;;;;;;;3.53;1.80;;;742.70;793.60;;;;;;5099526;28;20036;-66
2021/05/29 09:08:12;;;;;;;5.82;1.50;;;743.00;768.00;;;;;;5097118;28;20101;-71
2021/05/29 09:10:43;;;;;;;5.78;1.92;;;743.00;742.40;;;;;;5095630;28;20483;-65
2021/05/29 09:13:16;;;;;;;3.25;1.88;;;742.80;768.00;;;;;;5096930;28;20044;-66
2021/05/29 09:15:54;;;;;;;9.40;2.20;;;742.60;768.00;;;;;;5096396;28;20381;-68
2021/05/29 09:18:44;;;;;;;3.10;2.22;;;742.40;793.60;;;;;;5095797;28;20120;-79
2021/05/29 09:21:34;;;;;;;13.50;4.45;;;717.40;768.00;;;;;;5092998;28;20119;-65
2021/05/29 09:24:15;;;;;;;7.32;2.13;;;717.20;768.00;;;;;;5089112;28;20516;-66
2021/05/29 09:26:42;;;;;;;4.65;2.42;;;717.20;768.00;;;;;;5094198;28;20024;-66
2021/05/29 09:29:29;;;;;;;4.13;2.00;;;717.20;793.60;;;;;;5095419;28;20027;-66
2021/05/29 09:32:08;;;;;;;4.38;1.50;;;717.10;768.00;;;;;;5093286;28;20377;-66
2021/05/29 09:34:42;;;;;;;2.47;1.90;;;717.00;768.00;;;;;;5092960;28;20035;-67
2021/05/29 09:37:19;;;;;;;5.75;1.95;;;717.20;768.00;;;;;;5095307;28;20021;-66
2021/05/29 09:39:47;;;;;;;51.33;4.80;;;717.40;768.00;;;;;;5094824;28;20035;-66
2021/05/29 09:42:14;;;;;;;49.75;6.63;;;717.60;768.00;;;;;;5096033;28;20373;-66
2021/05/29 09:44:41;;;;;;;16.65;3.22;;;742.40;768.00;;;;;;5095944;28;20036;-77
2021/05/29 09:47:11;;;;;;;14.80;2.63;;;742.60;768.00;;;;;;5095951;28;20067;-65
2021/05/29 09:49:51;;;;;;;8.07;2.42;;;742.80;742.40;;;;;;5095287;28;20469;-78
2021/05/29 09:52:37;;;;;;;9.80;2.40;;;742.80;742.40;;;;;;5095556;28;20028;-67
2021/05/29 09:55:12;;;;;;;6.78;1.75;;;742.90;742.40;;;;;;5094729;28;20043;-76
2021/05/29 09:57:59;;;;;;;5.43;1.58;;;742.90;716.80;;;;;;5095303;28;20032;-78
2021/05/29 10:00:43;;;;;;;7.55;1.90;;;743.00;716.80;;;;;;5095593;28;20504;-72
2021/05/29 10:03:09;;;;;;;16.52;4.28;;;743.10;691.20;;;;;;5096104;28;20076;-75
2021/05/29 10:05:36;;;;;;;6.97;2.55;;;743.10;716.80;;;;;;5094601;28;20029;-68
2021/05/29 10:08:05;;;;;;;5.45;2.10;;;743.20;716.80;;;;;;5095920;28;20145;-77
2021/05/29 10:10:34;;;;;;;3.70;1.38;;;743.30;716.80;;;;;;5095964;28;20030;-66
2021/05/29 10:13:01;;;;;;;67.38;7.50;;;743.20;716.80;;;;;;5095972;28;20057;-67
2021/05/29 10:15:27;;;;;;;27.67;9.73;;;743.00;742.40;;;;;;5095561;28;20036;-73
2021/05/29 10:17:56;;;;;;;20.80;3.10;;;742.90;742.40;;;;;;5095804;28;20032;-66
2021/05/29 10:20:23;;;;;;;12.65;2.92;;;742.90;716.80;;;;;;5095631;28;20449;-68
2021/05/29 10:22:50;;;;;;;5.28;1.70;;;742.90;716.80;;;;;;5095306;28;20421;-65
2021/05/29 10:25:19;;;;;;;10.05;2.97;;;743.00;716.80;;;;;;5095461;28;20027;-65
2021/05/29 10:27:54;;;;;;;6.93;1.58;;;743.10;691.20;;;;;;5095234;28;20032;-66
2021/05/29 10:30:22;;;;;;;5.82;1.77;;;743.10;691.20;;;;;;5094365;28;20039;-67
2021/05/29 10:33:16;;;;;;;4.43;2.83;;;743.10;665.60;;;;;;5094903;28;20466;-72
2021/05/29 10:35:43;;;;;;;14.35;12.85;;;743.20;665.60;;;;;;5095453;28;20107;-69
2021/05/29 10:38:09;;;;;;;3.28;2.95;;;742.90;691.20;;;;;;5095223;28;20484;-66
2021/05/29 10:40:48;;;;;;;7.57;1.60;;;742.80;665.60;;;;;;5094739;28;20039;-67
2021/05/29 10:43:23;;;;;;;5.35;1.25;;;742.90;665.60;;;;;;5095210;28;20024;-67
2021/05/29 10:45:52;;;;;;;2.28;1.20;;;743.00;665.60;;;;;;5095044;28;20028;-71
2021/05/29 10:48:22;;;;;;;49.63;6.90;;;743.00;665.60;;;;;;5095184;28;20031;-74
2021/05/29 10:50:58;;;;;;;82.80;28.77;;;743.10;665.60;;;;;;5094689;28;20103;-70
2021/05/29 10:53:49;;;;;;;25.77;8.00;;;743.10;716.80;;;;;;5093605;28;20416;-68
2021/05/29 10:56:18;;;;;;;3.17;1.55;;;743.10;665.60;;;;;;5095195;28;20053;-67
2021/05/29 10:59:15;;;;;;;3.70;1.35;;;743.00;640.00;;;;;;5094900;28;20052;-68
2021/05/29 11:01:50;;;;;;;2.85;1.00;;;743.10;640.00;;;;;;5094850;28;20016;-67
2021/05/29 11:04:16;;;;;;;3.15;0.90;;;743.20;640.00;;;;;;5094792;28;20023;-67
2021/05/29 11:06:49;;;;;;;3.53;1.00;;;743.20;640.00;;;;;;5094786;28;20024;-67
2021/05/29 11:09:17;;;;;;;7.63;1.15;;;743.00;640.00;;;;;;5094449;28;20046;-67
2021/05/29 11:14:25;;;;;;;3.83;1.00;;;743.10;640.00;;;;;;5094829;28;20039;-68
2021/05/29 11:16:51;;;;;;;6.00;1.15;;;743.10;640.00;;;;;;5094335;28;20522;-67
2021/05/29 11:19:18;;;;;;;3.28;1.23;;;743.00;640.00;;;;;;5094610;28;20032;-67
2021/05/29 11:22:19;;;;;;;2.88;0.82;;;743.00;640.00;;;;;;5094573;28;20350;-68
2021/05/29 11:24:53;;;;;;;1.33;0.95;;;743.00;640.00;;;;;;5094565;28;20044;-70
2021/05/29 11:27:26;;;;;;;15.35;1.60;;;742.70;640.00;;;;;;5094261;28;20481;-67
2021/05/29 11:30:21;;;;;;;4.75;1.15;;;742.60;640.00;;;;;;5094233;28;20062;-67
2021/05/29 11:32:58;;;;;;;3.45;1.23;;;742.70;640.00;;;;;;5092895;28;20036;-67
2021/05/29 11:35:43;;;;;;;5.35;1.20;;;742.90;640.00;;;;;;5094319;28;20103;-67
2021/05/29 11:38:23;;;;;;;4.25;1.05;;;743.00;640.00;;;;;;5094246;28;20084;-67
2021/05/29 11:40:58;;;;;;;1.38;1.00;;;743.10;640.00;;;;;;5094364;28;20020;-67
2021/05/29 11:43:53;;;;;;;6.20;1.30;;;743.00;614.40;;;;;;5093710;28;20020;-67
2021/05/29 11:46:20;;;;;;;;;;;743.10;640.00;;;;;;5094319;28;20392;-67
2021/05/29 11:48:47;;;;;;;1.92;0.88;;;743.00;640.00;;;;;;5094227;28;20340;-68
2021/05/29 11:51:21;;;;;;;1.13;0.70;;;743.10;614.40;;;;;;5093954;28;20458;-68
2021/05/29 11:53:52;;;;;;;2.80;1.15;;;743.20;614.40;;;;;;5093722;28;20389;-67
2021/05/29 11:56:32;;;;;;;1.13;0.90;;;743.20;614.40;;;;;;5094006;28;20059;-67
2021/05/29 11:58:58;;;;;;;2.88;1.00;;;743.20;614.40;;;;;;5093500;28;20020;-67
2021/05/29 12:01:28;;;;;;;3.78;0.90;;;768.00;614.40;;;;;;5093776;28;20024;-67
2021/05/29 12:03:59;;;;;;;3.58;0.90;;;743.30;588.80;;;;;;5093764;28;20043;-67
2021/05/29 12:06:33;;;;;;;4.30;1.10;;;768.00;588.80;;;;;;5093507;28;20016;-70
2021/05/29 12:09:00;;;;;;;;;;;768.00;588.80;;;;;;5094066;28;20405;-68
2021/05/29 12:11:30;;;;;;;4.40;1.00;;;768.00;563.20;;;;;;5093601;28;20309;-72
2021/05/29 12:13:59;;;;;;;2.05;1.00;;;743.10;588.80;;;;;;5093331;28;20031;-67
2021/05/29 12:16:30;;;;;;;4.43;1.00;;;742.90;588.80;;;;;;5093638;28;20027;-67
2021/05/29 12:18:56;;;;;;;5.80;1.25;;;742.70;588.80;;;;;;5093355;28;20020;-70
2021/05/29 12:21:22;;;;;;;14.10;1.63;;;742.80;614.40;;;;;;5091320;28;20031;-66
2021/05/29 12:23:58;;;;;;;11.88;1.67;;;742.90;614.40;;;;;;5089187;28;20097;-66
2021/05/29 12:26:26;;;;;;;1.98;0.95;;;742.70;614.40;;;;;;5088012;28;20027;-71
2021/05/29 12:28:53;;;;;;;0.90;0.90;;;742.50;640.00;;;;;;5088735;28;20039;-68
2021/05/29 12:31:22;;;;;;;3.42;1.27;;;742.40;665.60;;;;;;5089773;28;20378;-66
2021/05/29 12:34:04;;;;;;;2.13;1.08;;;742.40;691.20;;;;;;5090475;28;20024;-63
2021/05/29 12:36:30;;;;;;;5.10;1.00;;;717.60;665.60;;;;;;5091558;28;20057;-68
2021/05/29 12:39:00;;;;;;;3.53;1.08;;;717.40;665.60;;;;;;5091349;28;20408;-69
2021/05/29 12:41:36;;;;;;;13.88;1.60;;;717.30;691.20;;;;;;5092715;28;20024;-67
2021/05/29 12:44:07;;;;;;;10.95;1.60;;;717.50;691.20;;;;;;5092290;28;20024;-66
2021/05/29 12:46:33;;;;;;;4.55;1.10;;;717.60;691.20;;;;;;5091762;28;20042;-66